sensor_id;sensor_type;location;lat;lon;timestamp;P1;durP1;ratioP1;P2;durP2;ratioP2
7181;SDS011;3632;42.724;23.298;2024-01-07T00:02:07;37.17;;;26.63;;
7181;SDS011;3632;42.724;23.298;2024-01-07T00:04:35;44.53;;;27.63;;
7181;SDS011;3632;42.724;23.298;2024-01-07T00:07:02;59.27;;;37.77;;
7181;SDS011;3632;42.724;23.298;2024-01-07T00:09:30;58.20;;;35.97;;
7181;SDS011;3632;42.724;23.298;2024-01-07T00:11:56;53.07;;;33.53;;
7181;SDS011;3632;42.724;23.298;2024-01-07T00:14:23;53.37;;;34.57;;
7181;SDS011;3632;42.724;23.298;2024-01-07T00:16:50;47.37;;;29.17;;
7181;SDS011;3632;42.724;23.298;2024-01-07T00:19:16;48.13;;;31.33;;
7181;SDS011;3632;42.724;23.298;2024-01-07T00:21:44;46.33;;;30.67;;
7181;SDS011;3632;42.724;23.298;2024-01-07T00:24:11;44.33;;;30.00;;
7181;SDS011;3632;42.724;23.298;2024-01-07T00:26:38;43.77;;;28.57;;
7181;SDS011;3632;42.724;23.298;2024-01-07T00:29:05;44.50;;;30.37;;
7181;SDS011;3632;42.724;23.298;2024-01-07T00:31:32;46.90;;;31.50;;
7181;SDS011;3632;42.724;23.298;2024-01-07T00:33:58;44.83;;;29.27;;
7181;SDS011;3632;42.724;23.298;2024-01-07T00:36:25;38.03;;;22.93;;
7181;SDS011;3632;42.724;23.298;2024-01-07T00:38:53;31.70;;;22.00;;
7181;SDS011;3632;42.724;23.298;2024-01-07T00:41:20;28.17;;;19.83;;
7181;SDS011;3632;42.724;23.298;2024-01-07T00:43:46;25.73;;;17.20;;
7181;SDS011;3632;42.724;23.298;2024-01-07T00:46:13;38.97;;;25.87;;
7181;SDS011;3632;42.724;23.298;2024-01-07T00:48:40;43.63;;;28.63;;
7181;SDS011;3632;42.724;23.298;2024-01-07T00:51:07;47.80;;;30.10;;
7181;SDS011;3632;42.724;23.298;2024-01-07T00:53:33;49.03;;;30.00;;
7181;SDS011;3632;42.724;23.298;2024-01-07T00:56:02;46.90;;;28.67;;
7181;SDS011;3632;42.724;23.298;2024-01-07T00:58:28;46.97;;;30.53;;
7181;SDS011;3632;42.724;23.298;2024-01-07T01:00:55;38.13;;;26.27;;
7181;SDS011;3632;42.724;23.298;2024-01-07T01:03:22;31.97;;;21.00;;
7181;SDS011;3632;42.724;23.298;2024-01-07T01:05:49;31.50;;;21.10;;
7181;SDS011;3632;42.724;23.298;2024-01-07T01:08:16;27.70;;;18.70;;
7181;SDS011;3632;42.724;23.298;2024-01-07T01:10:42;29.03;;;18.53;;
7181;SDS011;3632;42.724;23.298;2024-01-07T01:13:10;28.90;;;19.73;;
7181;SDS011;3632;42.724;23.298;2024-01-07T01:15:37;30.60;;;22.60;;
7181;SDS011;3632;42.724;23.298;2024-01-07T01:18:04;29.17;;;20.13;;
7181;SDS011;3632;42.724;23.298;2024-01-07T01:20:31;31.07;;;22.03;;
7181;SDS011;3632;42.724;23.298;2024-01-07T01:22:58;25.77;;;17.63;;
7181;SDS011;3632;42.724;23.298;2024-01-07T01:25:25;22.93;;;14.90;;
7181;SDS011;3632;42.724;23.298;2024-01-07T01:27:52;23.67;;;16.73;;
7181;SDS011;3632;42.724;23.298;2024-01-07T01:30:20;27.60;;;19.90;;
7181;SDS011;3632;42.724;23.298;2024-01-07T01:32:47;27.43;;;18.63;;
7181;SDS011;3632;42.724;23.298;2024-01-07T01:35:14;30.50;;;21.20;;
7181;SDS011;3632;42.724;23.298;2024-01-07T01:37:40;30.47;;;20.50;;
7181;SDS011;3632;42.724;23.298;2024-01-07T01:40:07;30.27;;;19.57;;
7181;SDS011;3632;42.724;23.298;2024-01-07T01:42:35;26.97;;;18.57;;
7181;SDS011;3632;42.724;23.298;2024-01-07T01:45:02;26.40;;;17.53;;
7181;SDS011;3632;42.724;23.298;2024-01-07T01:47:30;23.77;;;17.60;;
7181;SDS011;3632;42.724;23.298;2024-01-07T01:49:58;20.20;;;13.53;;
7181;SDS011;3632;42.724;23.298;2024-01-07T01:52:24;17.87;;;12.83;;
7181;SDS011;3632;42.724;23.298;2024-01-07T01:54:52;20.03;;;14.70;;
7181;SDS011;3632;42.724;23.298;2024-01-07T01:57:20;23.10;;;14.23;;
7181;SDS011;3632;42.724;23.298;2024-01-07T01:59:48;19.50;;;12.33;;
7181;SDS011;3632;42.724;23.298;2024-01-07T02:02:15;19.33;;;14.03;;
7181;SDS011;3632;42.724;23.298;2024-01-07T02:04:43;21.03;;;14.00;;
7181;SDS011;3632;42.724;23.298;2024-01-07T02:07:10;19.53;;;13.83;;
7181;SDS011;3632;42.724;23.298;2024-01-07T02:09:37;18.93;;;14.23;;
7181;SDS011;3632;42.724;23.298;2024-01-07T02:12:03;22.00;;;14.93;;
7181;SDS011;3632;42.724;23.298;2024-01-07T02:14:30;17.87;;;12.73;;
7181;SDS011;3632;42.724;23.298;2024-01-07T02:16:57;21.33;;;15.37;;
7181;SDS011;3632;42.724;23.298;2024-01-07T02:19:24;22.53;;;14.73;;
7181;SDS011;3632;42.724;23.298;2024-01-07T02:21:52;19.83;;;14.77;;
7181;SDS011;3632;42.724;23.298;2024-01-07T02:24:21;21.83;;;14.57;;
7181;SDS011;3632;42.724;23.298;2024-01-07T02:26:48;19.57;;;14.60;;
7181;SDS011;3632;42.724;23.298;2024-01-07T02:29:14;21.50;;;14.43;;
7181;SDS011;3632;42.724;23.298;2024-01-07T02:31:41;22.53;;;14.70;;
7181;SDS011;3632;42.724;23.298;2024-01-07T02:34:08;21.23;;;14.37;;
7181;SDS011;3632;42.724;23.298;2024-01-07T02:36:35;20.27;;;14.97;;
7181;SDS011;3632;42.724;23.298;2024-01-07T02:39:02;22.90;;;15.97;;
7181;SDS011;3632;42.724;23.298;2024-01-07T02:41:30;19.83;;;14.53;;
7181;SDS011;3632;42.724;23.298;2024-01-07T02:43:57;22.83;;;15.13;;
7181;SDS011;3632;42.724;23.298;2024-01-07T02:46:24;22.37;;;15.40;;
7181;SDS011;3632;42.724;23.298;2024-01-07T02:48:51;24.67;;;16.90;;
7181;SDS011;3632;42.724;23.298;2024-01-07T02:51:17;27.87;;;17.33;;
7181;SDS011;3632;42.724;23.298;2024-01-07T02:53:44;28.13;;;18.57;;
7181;SDS011;3632;42.724;23.298;2024-01-07T02:56:11;28.37;;;17.93;;
7181;SDS011;3632;42.724;23.298;2024-01-07T02:58:39;36.00;;;22.87;;
7181;SDS011;3632;42.724;23.298;2024-01-07T03:01:08;31.63;;;18.90;;
7181;SDS011;3632;42.724;23.298;2024-01-07T03:03:35;25.80;;;17.30;;
7181;SDS011;3632;42.724;23.298;2024-01-07T03:06:02;29.30;;;17.90;;
7181;SDS011;3632;42.724;23.298;2024-01-07T03:08:29;27.67;;;19.20;;
7181;SDS011;3632;42.724;23.298;2024-01-07T03:10:56;27.60;;;18.87;;
7181;SDS011;3632;42.724;23.298;2024-01-07T03:13:23;27.47;;;18.90;;
7181;SDS011;3632;42.724;23.298;2024-01-07T03:15:51;22.43;;;15.70;;
7181;SDS011;3632;42.724;23.298;2024-01-07T03:18:17;27.43;;;18.77;;
7181;SDS011;3632;42.724;23.298;2024-01-07T03:20:44;22.47;;;15.97;;
7181;SDS011;3632;42.724;23.298;2024-01-07T03:23:11;24.20;;;15.83;;
7181;SDS011;3632;42.724;23.298;2024-01-07T03:25:37;23.03;;;14.53;;
7181;SDS011;3632;42.724;23.298;2024-01-07T03:28:04;17.07;;;13.40;;
7181;SDS011;3632;42.724;23.298;2024-01-07T03:30:31;18.33;;;13.53;;
7181;SDS011;3632;42.724;23.298;2024-01-07T03:32:59;20.13;;;13.33;;
7181;SDS011;3632;42.724;23.298;2024-01-07T03:35:26;17.97;;;12.53;;
7181;SDS011;3632;42.724;23.298;2024-01-07T03:37:53;17.53;;;13.50;;
7181;SDS011;3632;42.724;23.298;2024-01-07T03:40:20;19.37;;;13.20;;
7181;SDS011;3632;42.724;23.298;2024-01-07T03:42:47;25.40;;;14.93;;
7181;SDS011;3632;42.724;23.298;2024-01-07T03:45:14;22.63;;;15.10;;
7181;SDS011;3632;42.724;23.298;2024-01-07T03:47:40;14.87;;;10.63;;
7181;SDS011;3632;42.724;23.298;2024-01-07T03:50:09;13.13;;;9.43;;
7181;SDS011;3632;42.724;23.298;2024-01-07T03:52:35;9.67;;;7.20;;
7181;SDS011;3632;42.724;23.298;2024-01-07T03:55:02;8.57;;;5.53;;
7181;SDS011;3632;42.724;23.298;2024-01-07T03:57:29;7.90;;;3.90;;
7181;SDS011;3632;42.724;23.298;2024-01-07T03:59:58;5.57;;;4.00;;
7181;SDS011;3632;42.724;23.298;2024-01-07T04:02:25;7.27;;;4.80;;
7181;SDS011;3632;42.724;23.298;2024-01-07T04:04:51;7.57;;;4.97;;
7181;SDS011;3632;42.724;23.298;2024-01-07T04:07:20;9.23;;;5.50;;
7181;SDS011;3632;42.724;23.298;2024-01-07T04:09:46;7.43;;;5.03;;
7181;SDS011;3632;42.724;23.298;2024-01-07T04:12:13;6.37;;;4.60;;
7181;SDS011;3632;42.724;23.298;2024-01-07T04:14:40;6.67;;;4.83;;
7181;SDS011;3632;42.724;23.298;2024-01-07T04:17:06;7.00;;;5.13;;
7181;SDS011;3632;42.724;23.298;2024-01-07T04:19:36;6.17;;;4.70;;
7181;SDS011;3632;42.724;23.298;2024-01-07T04:22:03;6.27;;;4.90;;
7181;SDS011;3632;42.724;23.298;2024-01-07T04:24:31;5.70;;;4.60;;
7181;SDS011;3632;42.724;23.298;2024-01-07T04:26:57;5.10;;;4.37;;
7181;SDS011;3632;42.724;23.298;2024-01-07T04:29:24;5.50;;;4.83;;
7181;SDS011;3632;42.724;23.298;2024-01-07T04:31:51;7.40;;;4.27;;
7181;SDS011;3632;42.724;23.298;2024-01-07T04:34:18;4.77;;;4.23;;
7181;SDS011;3632;42.724;23.298;2024-01-07T04:36:44;6.03;;;4.83;;
7181;SDS011;3632;42.724;23.298;2024-01-07T04:39:12;10.40;;;6.10;;
7181;SDS011;3632;42.724;23.298;2024-01-07T04:41:41;7.37;;;6.40;;
7181;SDS011;3632;42.724;23.298;2024-01-07T04:44:07;13.77;;;8.77;;
7181;SDS011;3632;42.724;23.298;2024-01-07T04:46:34;15.80;;;9.70;;
7181;SDS011;3632;42.724;23.298;2024-01-07T04:49:01;16.70;;;9.27;;
7181;SDS011;3632;42.724;23.298;2024-01-07T04:51:28;14.87;;;8.53;;
7181;SDS011;3632;42.724;23.298;2024-01-07T04:53:54;11.57;;;9.13;;
7181;SDS011;3632;42.724;23.298;2024-01-07T04:56:21;12.27;;;9.10;;
7181;SDS011;3632;42.724;23.298;2024-01-07T04:58:49;14.57;;;10.80;;
7181;SDS011;3632;42.724;23.298;2024-01-07T05:01:16;16.37;;;10.70;;
7181;SDS011;3632;42.724;23.298;2024-01-07T05:03:43;16.70;;;11.00;;
7181;SDS011;3632;42.724;23.298;2024-01-07T05:06:10;13.97;;;9.70;;
7181;SDS011;3632;42.724;23.298;2024-01-07T05:08:37;15.93;;;10.20;;
7181;SDS011;3632;42.724;23.298;2024-01-07T05:11:06;12.97;;;10.00;;
7181;SDS011;3632;42.724;23.298;2024-01-07T05:13:33;13.40;;;10.33;;
7181;SDS011;3632;42.724;23.298;2024-01-07T05:16:02;17.00;;;10.37;;
7181;SDS011;3632;42.724;23.298;2024-01-07T05:18:29;16.50;;;10.23;;
7181;SDS011;3632;42.724;23.298;2024-01-07T05:20:56;15.90;;;11.27;;
7181;SDS011;3632;42.724;23.298;2024-01-07T05:23:23;15.33;;;11.87;;
7181;SDS011;3632;42.724;23.298;2024-01-07T05:25:49;18.37;;;13.00;;
7181;SDS011;3632;42.724;23.298;2024-01-07T05:28:16;19.77;;;13.87;;
7181;SDS011;3632;42.724;23.298;2024-01-07T05:30:45;25.90;;;16.17;;
7181;SDS011;3632;42.724;23.298;2024-01-07T05:33:13;25.03;;;16.27;;
7181;SDS011;3632;42.724;23.298;2024-01-07T05:35:39;23.53;;;15.77;;
7181;SDS011;3632;42.724;23.298;2024-01-07T05:38:06;20.50;;;15.10;;
7181;SDS011;3632;42.724;23.298;2024-01-07T05:40:33;25.17;;;16.37;;
7181;SDS011;3632;42.724;23.298;2024-01-07T05:43:00;23.03;;;14.20;;
7181;SDS011;3632;42.724;23.298;2024-01-07T05:45:26;19.10;;;12.87;;
7181;SDS011;3632;42.724;23.298;2024-01-07T05:47:53;17.40;;;12.53;;
7181;SDS011;3632;42.724;23.298;2024-01-07T05:50:21;18.63;;;12.27;;
7181;SDS011;3632;42.724;23.298;2024-01-07T05:52:48;14.10;;;10.83;;
7181;SDS011;3632;42.724;23.298;2024-01-07T05:55:15;18.50;;;11.93;;
7181;SDS011;3632;42.724;23.298;2024-01-07T05:57:42;15.67;;;9.97;;
7181;SDS011;3632;42.724;23.298;2024-01-07T06:00:10;14.70;;;9.33;;
7181;SDS011;3632;42.724;23.298;2024-01-07T06:02:38;13.70;;;9.03;;
7181;SDS011;3632;42.724;23.298;2024-01-07T06:05:05;11.43;;;8.20;;
7181;SDS011;3632;42.724;23.298;2024-01-07T06:07:34;13.23;;;9.20;;
7181;SDS011;3632;42.724;23.298;2024-01-07T06:10:00;12.17;;;8.53;;
7181;SDS011;3632;42.724;23.298;2024-01-07T06:12:27;15.27;;;9.27;;
7181;SDS011;3632;42.724;23.298;2024-01-07T06:14:54;18.30;;;12.37;;
7181;SDS011;3632;42.724;23.298;2024-01-07T06:17:21;17.23;;;12.70;;
7181;SDS011;3632;42.724;23.298;2024-01-07T06:19:47;15.23;;;11.60;;
7181;SDS011;3632;42.724;23.298;2024-01-07T06:22:14;14.67;;;10.67;;
7181;SDS011;3632;42.724;23.298;2024-01-07T06:24:42;13.37;;;10.47;;
7181;SDS011;3632;42.724;23.298;2024-01-07T06:27:09;14.23;;;11.33;;
7181;SDS011;3632;42.724;23.298;2024-01-07T06:29:35;12.73;;;10.20;;
7181;SDS011;3632;42.724;23.298;2024-01-07T06:32:02;14.97;;;10.27;;
7181;SDS011;3632;42.724;23.298;2024-01-07T06:34:29;14.43;;;10.30;;
7181;SDS011;3632;42.724;23.298;2024-01-07T06:36:57;17.03;;;11.93;;
7181;SDS011;3632;42.724;23.298;2024-01-07T06:39:24;14.57;;;11.53;;
7181;SDS011;3632;42.724;23.298;2024-01-07T06:41:53;19.80;;;13.57;;
7181;SDS011;3632;42.724;23.298;2024-01-07T06:44:20;17.50;;;13.27;;
7181;SDS011;3632;42.724;23.298;2024-01-07T06:46:47;20.27;;;13.93;;
7181;SDS011;3632;42.724;23.298;2024-01-07T06:49:13;16.27;;;12.60;;
7181;SDS011;3632;42.724;23.298;2024-01-07T06:51:39;17.67;;;13.63;;
7181;SDS011;3632;42.724;23.298;2024-01-07T06:54:06;17.07;;;12.73;;
7181;SDS011;3632;42.724;23.298;2024-01-07T06:56:33;15.97;;;12.43;;
7181;SDS011;3632;42.724;23.298;2024-01-07T06:59:01;23.13;;;15.50;;
7181;SDS011;3632;42.724;23.298;2024-01-07T07:01:28;18.10;;;13.97;;
7181;SDS011;3632;42.724;23.298;2024-01-07T07:03:54;20.10;;;14.77;;
7181;SDS011;3632;42.724;23.298;2024-01-07T07:06:21;20.27;;;13.07;;
7181;SDS011;3632;42.724;23.298;2024-01-07T07:08:48;18.80;;;13.33;;
7181;SDS011;3632;42.724;23.298;2024-01-07T07:11:15;20.63;;;13.50;;
7181;SDS011;3632;42.724;23.298;2024-01-07T07:13:42;18.60;;;14.30;;
7181;SDS011;3632;42.724;23.298;2024-01-07T07:16:10;20.60;;;17.00;;
7181;SDS011;3632;42.724;23.298;2024-01-07T07:18:37;18.63;;;14.23;;
7181;SDS011;3632;42.724;23.298;2024-01-07T07:21:04;17.63;;;13.70;;
7181;SDS011;3632;42.724;23.298;2024-01-07T07:23:30;49.27;;;35.77;;
7181;SDS011;3632;42.724;23.298;2024-01-07T07:25:57;33.77;;;27.03;;
7181;SDS011;3632;42.724;23.298;2024-01-07T07:28:24;25.37;;;17.97;;
7181;SDS011;3632;42.724;23.298;2024-01-07T07:30:52;30.23;;;21.93;;
7181;SDS011;3632;42.724;23.298;2024-01-07T07:33:20;30.07;;;23.80;;
7181;SDS011;3632;42.724;23.298;2024-01-07T07:35:47;32.30;;;24.07;;
7181;SDS011;3632;42.724;23.298;2024-01-07T07:38:14;33.83;;;24.70;;
7181;SDS011;3632;42.724;23.298;2024-01-07T07:40:40;18.30;;;13.20;;
7181;SDS011;3632;42.724;23.298;2024-01-07T07:43:08;13.37;;;10.63;;
7181;SDS011;3632;42.724;23.298;2024-01-07T07:45:35;15.70;;;11.20;;
7181;SDS011;3632;42.724;23.298;2024-01-07T07:48:01;20.07;;;15.10;;
7181;SDS011;3632;42.724;23.298;2024-01-07T07:50:30;21.33;;;14.67;;
7181;SDS011;3632;42.724;23.298;2024-01-07T07:52:56;22.57;;;16.37;;
7181;SDS011;3632;42.724;23.298;2024-01-07T07:55:23;19.53;;;14.83;;
7181;SDS011;3632;42.724;23.298;2024-01-07T07:57:50;19.97;;;15.10;;
7181;SDS011;3632;42.724;23.298;2024-01-07T08:00:17;17.70;;;14.33;;
7181;SDS011;3632;42.724;23.298;2024-01-07T08:02:44;22.70;;;15.90;;
7181;SDS011;3632;42.724;23.298;2024-01-07T08:05:11;20.77;;;14.00;;
7181;SDS011;3632;42.724;23.298;2024-01-07T08:07:39;20.13;;;14.30;;
7181;SDS011;3632;42.724;23.298;2024-01-07T08:10:06;22.40;;;14.90;;
7181;SDS011;3632;42.724;23.298;2024-01-07T08:12:34;18.03;;;14.40;;
7181;SDS011;3632;42.724;23.298;2024-01-07T08:15:00;15.53;;;12.57;;
7181;SDS011;3632;42.724;23.298;2024-01-07T08:17:27;17.77;;;13.23;;
7181;SDS011;3632;42.724;23.298;2024-01-07T08:19:54;18.20;;;13.17;;
7181;SDS011;3632;42.724;23.298;2024-01-07T08:22:21;16.43;;;12.17;;
7181;SDS011;3632;42.724;23.298;2024-01-07T08:24:49;15.87;;;10.90;;
7181;SDS011;3632;42.724;23.298;2024-01-07T08:27:16;23.73;;;18.10;;
7181;SDS011;3632;42.724;23.298;2024-01-07T08:29:43;21.40;;;16.73;;
7181;SDS011;3632;42.724;23.298;2024-01-07T08:32:11;19.50;;;14.33;;
7181;SDS011;3632;42.724;23.298;2024-01-07T08:34:38;17.77;;;12.80;;
7181;SDS011;3632;42.724;23.298;2024-01-07T08:37:05;17.70;;;13.60;;
7181;SDS011;3632;42.724;23.298;2024-01-07T08:39:34;16.97;;;12.60;;
7181;SDS011;3632;42.724;23.298;2024-01-07T08:42:02;17.83;;;13.47;;
7181;SDS011;3632;42.724;23.298;2024-01-07T08:44:29;18.47;;;13.83;;
7181;SDS011;3632;42.724;23.298;2024-01-07T08:46:56;20.40;;;14.57;;
7181;SDS011;3632;42.724;23.298;2024-01-07T08:49:24;18.70;;;14.60;;
7181;SDS011;3632;42.724;23.298;2024-01-07T08:51:51;16.87;;;13.87;;
7181;SDS011;3632;42.724;23.298;2024-01-07T08:54:17;18.47;;;13.80;;
7181;SDS011;3632;42.724;23.298;2024-01-07T08:56:44;16.07;;;13.63;;
7181;SDS011;3632;42.724;23.298;2024-01-07T08:59:12;21.63;;;14.63;;
7181;SDS011;3632;42.724;23.298;2024-01-07T09:01:39;17.27;;;12.47;;
7181;SDS011;3632;42.724;23.298;2024-01-07T09:04:06;14.47;;;11.83;;
7181;SDS011;3632;42.724;23.298;2024-01-07T09:06:32;15.37;;;11.67;;
7181;SDS011;3632;42.724;23.298;2024-01-07T09:08:59;15.03;;;12.00;;
7181;SDS011;3632;42.724;23.298;2024-01-07T09:11:26;14.47;;;11.77;;
7181;SDS011;3632;42.724;23.298;2024-01-07T09:13:52;16.07;;;12.60;;
7181;SDS011;3632;42.724;23.298;2024-01-07T09:16:20;14.97;;;12.60;;
7181;SDS011;3632;42.724;23.298;2024-01-07T09:18:47;14.80;;;11.87;;
7181;SDS011;3632;42.724;23.298;2024-01-07T09:21:14;18.07;;;14.47;;
7181;SDS011;3632;42.724;23.298;2024-01-07T09:23:41;19.47;;;13.70;;
7181;SDS011;3632;42.724;23.298;2024-01-07T09:26:08;14.87;;;11.67;;
7181;SDS011;3632;42.724;23.298;2024-01-07T09:28:34;14.40;;;11.43;;
7181;SDS011;3632;42.724;23.298;2024-01-07T09:31:01;12.10;;;10.80;;
7181;SDS011;3632;42.724;23.298;2024-01-07T09:33:29;13.43;;;9.63;;
7181;SDS011;3632;42.724;23.298;2024-01-07T09:35:56;10.83;;;9.53;;
7181;SDS011;3632;42.724;23.298;2024-01-07T09:38:22;11.83;;;9.77;;
7181;SDS011;3632;42.724;23.298;2024-01-07T09:40:50;9.73;;;8.03;;
7181;SDS011;3632;42.724;23.298;2024-01-07T09:43:18;11.70;;;7.97;;
7181;SDS011;3632;42.724;23.298;2024-01-07T09:45:45;12.13;;;8.50;;
7181;SDS011;3632;42.724;23.298;2024-01-07T09:48:13;9.13;;;7.70;;
7181;SDS011;3632;42.724;23.298;2024-01-07T09:50:41;11.50;;;7.93;;
7181;SDS011;3632;42.724;23.298;2024-01-07T09:53:10;8.70;;;7.27;;
7181;SDS011;3632;42.724;23.298;2024-01-07T09:55:45;10.60;;;7.70;;
7181;SDS011;3632;42.724;23.298;2024-01-07T09:58:18;10.67;;;8.10;;
7181;SDS011;3632;42.724;23.298;2024-01-07T10:00:46;10.53;;;7.77;;
7181;SDS011;3632;42.724;23.298;2024-01-07T10:03:13;9.33;;;8.03;;
7181;SDS011;3632;42.724;23.298;2024-01-07T10:05:41;10.63;;;8.07;;
7181;SDS011;3632;42.724;23.298;2024-01-07T10:08:08;9.53;;;8.53;;
7181;SDS011;3632;42.724;23.298;2024-01-07T10:10:35;9.27;;;7.20;;
7181;SDS011;3632;42.724;23.298;2024-01-07T10:13:02;11.40;;;7.73;;
7181;SDS011;3632;42.724;23.298;2024-01-07T10:15:29;10.47;;;7.93;;
7181;SDS011;3632;42.724;23.298;2024-01-07T10:18:02;7.73;;;5.80;;
7181;SDS011;3632;42.724;23.298;2024-01-07T10:20:30;4.93;;;3.73;;
7181;SDS011;3632;42.724;23.298;2024-01-07T10:22:59;4.40;;;3.73;;
7181;SDS011;3632;42.724;23.298;2024-01-07T10:25:26;4.97;;;4.47;;
7181;SDS011;3632;42.724;23.298;2024-01-07T10:27:53;6.13;;;4.40;;
7181;SDS011;3632;42.724;23.298;2024-01-07T10:30:19;7.07;;;3.33;;
7181;SDS011;3632;42.724;23.298;2024-01-07T10:32:47;4.17;;;3.40;;
7181;SDS011;3632;42.724;23.298;2024-01-07T10:35:13;5.77;;;4.20;;
7181;SDS011;3632;42.724;23.298;2024-01-07T10:37:42;6.33;;;3.93;;
7181;SDS011;3632;42.724;23.298;2024-01-07T10:40:12;4.10;;;2.80;;
7181;SDS011;3632;42.724;23.298;2024-01-07T10:42:39;2.90;;;1.77;;
7181;SDS011;3632;42.724;23.298;2024-01-07T10:45:09;3.90;;;1.70;;
7181;SDS011;3632;42.724;23.298;2024-01-07T10:47:36;5.30;;;1.97;;
7181;SDS011;3632;42.724;23.298;2024-01-07T10:50:06;2.90;;;1.27;;
7181;SDS011;3632;42.724;23.298;2024-01-07T10:52:38;2.23;;;1.00;;
7181;SDS011;3632;42.724;23.298;2024-01-07T10:55:08;2.80;;;1.20;;
7181;SDS011;3632;42.724;23.298;2024-01-07T10:57:41;5.30;;;1.20;;
7181;SDS011;3632;42.724;23.298;2024-01-07T11:00:10;4.00;;;1.20;;
7181;SDS011;3632;42.724;23.298;2024-01-07T11:02:46;3.67;;;1.40;;
7181;SDS011;3632;42.724;23.298;2024-01-07T11:05:22;3.90;;;1.70;;
7181;SDS011;3632;42.724;23.298;2024-01-07T11:07:54;2.83;;;1.00;;
7181;SDS011;3632;42.724;23.298;2024-01-07T11:10:29;2.97;;;1.60;;
7181;SDS011;3632;42.724;23.298;2024-01-07T11:13:04;2.40;;;1.53;;
7181;SDS011;3632;42.724;23.298;2024-01-07T11:15:50;5.17;;;1.40;;
7181;SDS011;3632;42.724;23.298;2024-01-07T11:18:18;2.87;;;1.50;;
7181;SDS011;3632;42.724;23.298;2024-01-07T11:20:45;2.17;;;1.40;;
7181;SDS011;3632;42.724;23.298;2024-01-07T11:23:28;4.97;;;2.40;;
7181;SDS011;3632;42.724;23.298;2024-01-07T11:25:58;10.47;;;3.73;;
7181;SDS011;3632;42.724;23.298;2024-01-07T11:34:27;14.87;;;12.17;;
7181;SDS011;3632;42.724;23.298;2024-01-07T11:37:04;8.50;;;4.30;;
7181;SDS011;3632;42.724;23.298;2024-01-07T11:39:35;6.60;;;4.23;;
7181;SDS011;3632;42.724;23.298;2024-01-07T11:42:02;6.53;;;4.07;;
7181;SDS011;3632;42.724;23.298;2024-01-07T11:44:32;7.60;;;4.03;;
7181;SDS011;3632;42.724;23.298;2024-01-07T11:47:00;4.43;;;3.27;;
7181;SDS011;3632;42.724;23.298;2024-01-07T11:49:27;7.77;;;4.50;;
7181;SDS011;3632;42.724;23.298;2024-01-07T11:51:54;7.47;;;3.97;;
7181;SDS011;3632;42.724;23.298;2024-01-07T11:54:20;6.27;;;3.90;;
7181;SDS011;3632;42.724;23.298;2024-01-07T11:56:47;7.00;;;4.43;;
7181;SDS011;3632;42.724;23.298;2024-01-07T11:59:14;5.53;;;3.83;;
7181;SDS011;3632;42.724;23.298;2024-01-07T12:01:42;5.33;;;3.97;;
7181;SDS011;3632;42.724;23.298;2024-01-07T12:04:09;6.70;;;4.10;;
7181;SDS011;3632;42.724;23.298;2024-01-07T12:06:36;5.37;;;3.97;;
7181;SDS011;3632;42.724;23.298;2024-01-07T12:09:04;8.73;;;4.00;;
7181;SDS011;3632;42.724;23.298;2024-01-07T12:11:31;7.77;;;3.57;;
7181;SDS011;3632;42.724;23.298;2024-01-07T12:13:58;6.57;;;3.77;;
7181;SDS011;3632;42.724;23.298;2024-01-07T12:16:25;4.93;;;3.43;;
7181;SDS011;3632;42.724;23.298;2024-01-07T12:18:53;3.90;;;3.50;;
7181;SDS011;3632;42.724;23.298;2024-01-07T12:21:20;4.67;;;3.90;;
7181;SDS011;3632;42.724;23.298;2024-01-07T12:23:47;5.03;;;4.17;;
7181;SDS011;3632;42.724;23.298;2024-01-07T12:26:14;5.53;;;3.83;;
7181;SDS011;3632;42.724;23.298;2024-01-07T12:28:41;13.37;;;9.67;;
7181;SDS011;3632;42.724;23.298;2024-01-07T12:31:09;11.20;;;7.17;;
7181;SDS011;3632;42.724;23.298;2024-01-07T12:33:36;6.33;;;3.73;;
7181;SDS011;3632;42.724;23.298;2024-01-07T12:36:06;8.20;;;3.47;;
7181;SDS011;3632;42.724;23.298;2024-01-07T12:38:36;5.77;;;3.47;;
7181;SDS011;3632;42.724;23.298;2024-01-07T12:41:03;6.17;;;3.63;;
7181;SDS011;3632;42.724;23.298;2024-01-07T12:43:30;7.13;;;3.70;;
7181;SDS011;3632;42.724;23.298;2024-01-07T12:45:57;5.60;;;3.90;;
7181;SDS011;3632;42.724;23.298;2024-01-07T12:48:29;7.33;;;4.20;;
7181;SDS011;3632;42.724;23.298;2024-01-07T12:50:56;26.93;;;4.23;;
7181;SDS011;3632;42.724;23.298;2024-01-07T12:53:24;5.90;;;3.50;;
7181;SDS011;3632;42.724;23.298;2024-01-07T12:55:51;15.73;;;10.23;;
7181;SDS011;3632;42.724;23.298;2024-01-07T12:58:18;5.53;;;4.03;;
7181;SDS011;3632;42.724;23.298;2024-01-07T13:00:46;5.80;;;4.33;;
7181;SDS011;3632;42.724;23.298;2024-01-07T13:03:13;8.67;;;4.97;;
7181;SDS011;3632;42.724;23.298;2024-01-07T13:05:42;7.10;;;4.93;;
7181;SDS011;3632;42.724;23.298;2024-01-07T13:08:11;7.57;;;4.47;;
7181;SDS011;3632;42.724;23.298;2024-01-07T13:10:39;8.37;;;5.03;;
7181;SDS011;3632;42.724;23.298;2024-01-07T13:13:06;10.13;;;5.00;;
7181;SDS011;3632;42.724;23.298;2024-01-07T13:15:35;6.93;;;5.80;;
7181;SDS011;3632;42.724;23.298;2024-01-07T13:18:00;7.13;;;5.00;;
7181;SDS011;3632;42.724;23.298;2024-01-07T13:20:27;12.53;;;7.10;;
7181;SDS011;3632;42.724;23.298;2024-01-07T13:22:54;10.23;;;6.10;;
7181;SDS011;3632;42.724;23.298;2024-01-07T13:25:21;6.80;;;4.50;;
7181;SDS011;3632;42.724;23.298;2024-01-07T13:27:49;8.60;;;6.00;;
7181;SDS011;3632;42.724;23.298;2024-01-07T13:30:15;7.60;;;5.17;;
7181;SDS011;3632;42.724;23.298;2024-01-07T13:32:42;6.73;;;4.20;;
7181;SDS011;3632;42.724;23.298;2024-01-07T13:35:09;8.67;;;5.63;;
7181;SDS011;3632;42.724;23.298;2024-01-07T13:37:38;8.57;;;5.60;;
7181;SDS011;3632;42.724;23.298;2024-01-07T13:40:07;9.47;;;5.17;;
7181;SDS011;3632;42.724;23.298;2024-01-07T13:42:35;7.50;;;4.70;;
7181;SDS011;3632;42.724;23.298;2024-01-07T13:45:04;7.87;;;4.93;;
7181;SDS011;3632;42.724;23.298;2024-01-07T13:47:31;7.97;;;4.97;;
7181;SDS011;3632;42.724;23.298;2024-01-07T13:49:58;7.93;;;4.80;;
7181;SDS011;3632;42.724;23.298;2024-01-07T13:52:24;6.80;;;4.67;;
7181;SDS011;3632;42.724;23.298;2024-01-07T13:54:54;9.33;;;5.10;;
7181;SDS011;3632;42.724;23.298;2024-01-07T13:57:22;6.53;;;4.83;;
7181;SDS011;3632;42.724;23.298;2024-01-07T13:59:49;7.77;;;5.90;;
7181;SDS011;3632;42.724;23.298;2024-01-07T14:02:17;8.93;;;5.97;;
7181;SDS011;3632;42.724;23.298;2024-01-07T14:04:44;11.63;;;7.90;;
7181;SDS011;3632;42.724;23.298;2024-01-07T14:07:11;16.20;;;11.97;;
7181;SDS011;3632;42.724;23.298;2024-01-07T14:09:38;18.33;;;12.50;;
7181;SDS011;3632;42.724;23.298;2024-01-07T14:12:05;19.53;;;14.07;;
7181;SDS011;3632;42.724;23.298;2024-01-07T14:14:32;19.87;;;15.03;;
7181;SDS011;3632;42.724;23.298;2024-01-07T14:16:59;23.90;;;17.37;;
7181;SDS011;3632;42.724;23.298;2024-01-07T14:19:27;21.83;;;14.40;;
7181;SDS011;3632;42.724;23.298;2024-01-07T14:21:54;24.27;;;17.27;;
7181;SDS011;3632;42.724;23.298;2024-01-07T14:24:21;27.83;;;17.17;;
7181;SDS011;3632;42.724;23.298;2024-01-07T14:26:47;36.07;;;23.77;;
7181;SDS011;3632;42.724;23.298;2024-01-07T14:29:14;41.23;;;25.73;;
7181;SDS011;3632;42.724;23.298;2024-01-07T14:31:41;35.40;;;24.63;;
7181;SDS011;3632;42.724;23.298;2024-01-07T14:34:08;36.20;;;25.43;;
7181;SDS011;3632;42.724;23.298;2024-01-07T14:36:36;34.20;;;23.47;;
7181;SDS011;3632;42.724;23.298;2024-01-07T14:39:05;31.17;;;21.47;;
7181;SDS011;3632;42.724;23.298;2024-01-07T14:41:33;31.03;;;20.23;;
7181;SDS011;3632;42.724;23.298;2024-01-07T14:44:00;30.20;;;22.40;;
7181;SDS011;3632;42.724;23.298;2024-01-07T14:46:28;27.93;;;21.27;;
7181;SDS011;3632;42.724;23.298;2024-01-07T14:48:55;27.30;;;20.33;;
7181;SDS011;3632;42.724;23.298;2024-01-07T14:51:21;27.37;;;20.67;;